Time;durP1;ratioP1;P1;durP2;ratioP2;P2;SDS_P1;SDS_P2;PMS_P1;PMS_P2;Temp;Humidity;BMP_temperature;BMP_pressure;BME280_temperature;BME280_humidity;BME280_pressure;Samples;Min_cycle;Max_cycle;Signal;HPM_P1;HPM_P2
2024/01/27 00:02:24;;;;;;;13.82;6.20;;;;;;;0.09;100.00;95452.66;5070207;28;20052;-62
2024/01/27 00:04:51;;;;;;;20.48;8.02;;;;;;;0.03;100.00;95456.59;5069462;28;20415;-64
2024/01/27 00:07:17;;;;;;;16.08;7.05;;;;;;;0.24;100.00;95463.03;5069921;28;20045;-61
2024/01/27 00:09:44;;;;;;;16.98;7.25;;;;;;;0.38;100.00;95461.03;5070133;28;20105;-62
2024/01/27 00:12:11;;;;;;;18.80;9.13;;;;;;;0.45;100.00;95463.28;5069394;28;20048;-61
2024/01/27 00:14:39;;;;;;;14.00;5.85;;;;;;;0.23;100.00;95464.16;5069705;28;20054;-61
2024/01/27 00:17:05;;;;;;;15.07;5.75;;;;;;;0.34;100.00;95470.88;5069376;28;20045;-62
2024/01/27 00:19:35;;;;;;;12.48;4.80;;;;;;;0.32;100.00;95466.88;5069726;28;20041;-62
2024/01/27 00:22:06;;;;;;;17.05;7.38;;;;;;;0.36;100.00;95470.53;5069179;28;20047;-62
2024/01/27 00:24:33;;;;;;;11.07;4.33;;;;;;;0.25;100.00;95480.03;5069791;28;20044;-62
2024/01/27 00:27:00;;;;;;;9.95;4.70;;;;;;;0.28;100.00;95474.00;5069228;28;20045;-62
2024/01/27 00:29:27;;;;;;;8.95;4.25;;;;;;;0.30;100.00;95479.88;5069613;28;20608;-63
2024/01/27 00:31:54;;;;;;;13.57;6.13;;;;;;;0.31;100.00;95479.59;5069229;28;20435;-62
2024/01/27 00:34:21;;;;;;;30.63;11.73;;;;;;;0.34;100.00;95487.06;5069694;28;20093;-62
2024/01/27 00:36:51;;;;;;;26.00;11.23;;;;;;;0.39;100.00;95497.72;5069805;28;20391;-62
2024/01/27 00:39:18;;;;;;;35.78;14.77;;;;;;;0.39;100.00;95488.84;5068510;28;20674;-62
2024/01/27 00:41:45;;;;;;;33.38;13.68;;;;;;;0.39;100.00;95497.72;5069902;28;20048;-62
2024/01/27 00:44:12;;;;;;;29.27;11.35;;;;;;;0.41;100.00;95499.34;5068664;28;20051;-62
2024/01/27 00:46:39;;;;;;;22.52;10.32;;;;;;;0.47;100.00;95493.47;5069332;28;20053;-62
2024/01/27 00:49:06;;;;;;;12.53;5.33;;;;;;;0.39;100.00;95503.13;5067496;28;20101;-62
2024/01/27 00:51:33;;;;;;;10.20;4.55;;;;;;;0.43;100.00;95497.13;5069632;28;20056;-62
2024/01/27 00:54:00;;;;;;;10.05;4.80;;;;;;;0.45;100.00;95514.59;5068936;28;20440;-62
2024/01/27 00:56:27;;;;;;;9.35;4.60;;;;;;;0.50;100.00;95502.84;5069071;28;20048;-62
2024/01/27 00:58:53;;;;;;;9.18;4.78;;;;;;;0.55;100.00;95505.41;5068992;28;20044;-62
2024/01/27 01:01:20;;;;;;;8.40;4.17;;;;;;;0.63;100.00;95509.28;5069177;28;20059;-61
2024/01/27 01:03:47;;;;;;;9.00;4.55;;;;;;;0.69;100.00;95505.31;5069080;28;20063;-63
2024/01/27 01:06:14;;;;;;;8.75;4.68;;;;;;;0.69;100.00;95499.91;5068604;28;20055;-62
2024/01/27 01:08:41;;;;;;;7.10;4.07;;;;;;;0.76;100.00;95503.72;5069290;28;20048;-62
2024/01/27 01:11:08;;;;;;;43.38;16.13;;;;;;;0.72;100.00;95504.66;5068343;28;20046;-64
2024/01/27 01:13:35;;;;;;;36.93;14.87;;;;;;;0.52;100.00;95509.53;5069074;28;20041;-62
2024/01/27 01:16:03;;;;;;;24.00;9.98;;;;;;;0.68;100.00;95517.22;5067013;28;20055;-62
2024/01/27 01:18:30;;;;;;;22.30;10.65;;;;;;;0.85;100.00;95508.38;5068843;28;20513;-62
2024/01/27 01:20:57;;;;;;;22.92;9.63;;;;;;;0.81;100.00;95510.13;5068415;28;20056;-62
2024/01/27 01:23:24;;;;;;;18.13;7.32;;;;;;;0.86;100.00;95518.06;5069198;28;20045;-62
2024/01/27 01:25:50;;;;;;;15.63;6.80;;;;;;;0.79;100.00;95513.13;5068682;28;20046;-62
2024/01/27 01:28:17;;;;;;;14.65;6.30;;;;;;;0.67;100.00;95497.50;5069011;28;20047;-62
2024/01/27 01:30:44;;;;;;;10.27;5.57;;;;;;;0.69;100.00;95499.91;5069139;28;20063;-62
2024/01/27 01:33:11;;;;;;;9.68;4.65;;;;;;;0.67;100.00;95502.13;5068042;28;20114;-62
2024/01/27 01:35:38;;;;;;;12.55;5.40;;;;;;;0.65;100.00;95507.06;5068893;28;20040;-63
2024/01/27 01:38:05;;;;;;;21.03;8.47;;;;;;;0.25;100.00;95510.53;5068220;28;20095;-63
2024/01/27 01:40:31;;;;;;;15.48;7.47;;;;;;;0.26;100.00;95509.41;5067796;28;20058;-64
2024/01/27 01:42:59;;;;;;;17.65;8.40;;;;;;;0.27;100.00;95518.31;5068012;28;20138;-62
2024/01/27 01:45:25;;;;;;;13.02;6.18;;;;;;;0.27;100.00;95516.41;5068889;28;20049;-62
2024/01/27 01:47:52;;;;;;;14.57;6.78;;;;;;;0.28;100.00;95514.50;5068413;28;20047;-62
2024/01/27 01:50:20;;;;;;;47.10;19.30;;;;;;;0.26;100.00;95509.41;5068664;28;20063;-62
2024/01/27 01:52:52;;;;;;;17.10;7.80;;;;;;;0.25;100.00;95515.94;5067358;28;20047;-62
2024/01/27 01:55:19;;;;;;;15.15;7.10;;;;;;;0.19;100.00;95509.88;5087980;28;21688;-62
2024/01/27 01:57:46;;;;;;;14.25;6.25;;;;;;;0.07;100.00;95511.56;5104234;28;20204;-62
2024/01/27 02:00:14;;;;;;;12.38;5.53;;;;;;;0.07;100.00;95500.75;5088222;28;20050;-64
2024/01/27 02:02:44;;;;;;;12.13;5.43;;;;;;;0.05;100.00;95513.75;5088829;28;20043;-63
2024/01/27 02:05:14;;;;;;;10.88;5.25;;;;;;;0.05;100.00;95513.75;5088285;28;20048;-63
2024/01/27 02:07:41;;;;;;;15.10;7.57;;;;;;;-0.37;100.00;95524.75;5088804;28;20044;-62
2024/01/27 02:10:13;;;;;;;18.48;8.48;;;;;;;-0.52;100.00;95531.31;5088058;28;20413;-62
2024/01/27 02:12:40;;;;;;;16.50;7.95;;;;;;;-0.26;100.00;95531.50;5091630;28;20052;-62
2024/01/27 02:15:11;;;;;;;14.63;6.27;;;;;;;-0.25;100.00;95522.28;5091398;28;20054;-62
2024/01/27 02:17:39;;;;;;;11.10;5.47;;;;;;;-0.29;100.00;95521.31;5088739;28;20049;-62
2024/01/27 02:20:07;;;;;;;12.60;6.50;;;;;;;-0.27;100.00;95513.72;5071441;28;20048;-63
2024/01/27 02:22:34;;;;;;;11.48;5.50;;;;;;;-0.30;100.00;95514.34;5071110;28;20051;-62
2024/01/27 02:25:04;;;;;;;12.05;6.07;;;;;;;-0.49;100.00;95509.09;5071346;28;20048;-62
2024/01/27 02:27:31;;;;;;;12.13;5.40;;;;;;;-0.50;100.00;95523.72;5071893;28;20113;-62
2024/01/27 02:29:58;;;;;;;35.45;14.90;;;;;;;-0.51;100.00;95522.09;5071481;28;20040;-61
2024/01/27 02:32:25;;;;;;;22.73;9.32;;;;;;;-0.89;100.00;95533.19;5071437;28;20119;-62
2024/01/27 02:34:51;;;;;;;18.80;8.10;;;;;;;-0.82;100.00;95533.59;5071355;28;20044;-62
2024/01/27 02:37:19;;;;;;;17.42;8.10;;;;;;;-0.59;100.00;95538.22;5071742;28;20048;-64
2024/01/27 02:39:46;;;;;;;18.60;7.87;;;;;;;-0.41;100.00;95538.03;5071940;28;20045;-63
2024/01/27 02:42:12;;;;;;;17.17;7.80;;;;;;;-0.28;100.00;95538.28;5071088;28;20047;-62
2024/01/27 02:44:39;;;;;;;13.93;6.93;;;;;;;-0.22;100.00;95537.09;5071777;28;20036;-61
2024/01/27 02:47:06;;;;;;;12.93;6.47;;;;;;;-0.16;100.00;95537.75;5070786;28;20399;-62
2024/01/27 02:49:33;;;;;;;16.60;7.05;;;;;;;-0.13;100.00;95540.63;5070376;28;20499;-62
2024/01/27 02:52:00;;;;;;;15.30;5.97;;;;;;;0.01;100.00;95548.66;5070938;28;20048;-64
2024/01/27 02:54:27;;;;;;;16.05;6.20;;;;;;;0.08;100.00;95540.94;5071420;28;20056;-63
2024/01/27 02:56:54;;;;;;;13.30;6.28;;;;;;;0.20;100.00;95548.44;5071214;28;20048;-62
2024/01/27 02:59:21;;;;;;;18.67;7.40;;;;;;;0.26;100.00;95546.41;5071309;28;20059;-62
2024/01/27 03:01:47;;;;;;;15.93;7.05;;;;;;;0.37;100.00;95542.38;5071272;28;20401;-64
2024/01/27 03:04:14;;;;;;;16.63;6.83;;;;;;;0.45;100.00;95557.03;5070755;28;20037;-62
2024/01/27 03:06:41;;;;;;;14.77;7.00;;;;;;;0.50;100.00;95544.16;5071468;28;20094;-62
2024/01/27 03:09:08;;;;;;;15.43;6.43;;;;;;;0.59;100.00;95539.59;5070497;28;20071;-63
2024/01/27 03:11:35;;;;;;;13.88;7.25;;;;;;;0.38;100.00;95533.13;5071339;28;20486;-62
2024/01/27 03:14:01;;;;;;;17.98;7.75;;;;;;;0.14;100.00;95542.41;5070467;28;20059;-62
2024/01/27 03:16:28;;;;;;;15.10;7.50;;;;;;;-0.03;100.00;95536.91;5070153;28;20123;-63
2024/01/27 03:18:55;;;;;;;17.02;8.45;;;;;;;0.19;100.00;95546.88;5070563;28;20063;-62
2024/01/27 03:21:22;;;;;;;17.65;8.02;;;;;;;0.42;100.00;95546.81;5070974;28;20041;-62
2024/01/27 03:23:49;;;;;;;13.68;7.28;;;;;;;0.46;100.00;95554.00;5071049;28;20053;-62
2024/01/27 03:26:15;;;;;;;14.93;6.70;;;;;;;0.33;100.00;95552.19;5070129;28;20137;-62
2024/01/27 03:28:42;;;;;;;16.97;5.97;;;;;;;0.31;100.00;95557.91;5070786;28;20472;-62
2024/01/27 03:31:09;;;;;;;13.60;6.15;;;;;;;0.26;100.00;95555.31;5070122;28;20486;-64
2024/01/27 03:33:35;;;;;;;16.48;6.50;;;;;;;0.20;100.00;95559.25;5070778;28;20043;-62
2024/01/27 03:36:02;;;;;;;16.15;6.45;;;;;;;0.14;100.00;95565.88;5070333;28;20102;-61
2024/01/27 03:38:29;;;;;;;45.53;16.27;;;;;;;0.07;100.00;95574.44;5070519;28;20044;-61
2024/01/27 03:40:56;;;;;;;98.80;35.03;;;;;;;-0.01;100.00;95570.56;5069890;28;20044;-61
2024/01/27 03:43:23;;;;;;;110.70;38.70;;;;;;;-0.03;100.00;95577.38;5069851;28;20048;-62
2024/01/27 03:45:49;;;;;;;53.35;19.67;;;;;;;-0.04;100.00;95575.75;5070392;28;20052;-62
2024/01/27 03:48:16;;;;;;;38.47;15.40;;;;;;;-0.09;100.00;95574.00;5069674;28;20039;-62
2024/01/27 03:50:43;;;;;;;25.17;10.65;;;;;;;-0.16;100.00;95568.25;5070494;28;20063;-61
2024/01/27 03:53:10;;;;;;;14.33;6.40;;;;;;;-0.50;100.00;95574.94;5069672;28;20051;-61
2024/01/27 03:55:37;;;;;;;15.98;7.05;;;;;;;-0.63;100.00;95578.47;5070274;28;20044;-61
2024/01/27 03:58:03;;;;;;;16.30;7.03;;;;;;;-0.69;100.00;95582.38;5069664;28;20660;-62
2024/01/27 04:00:32;;;;;;;15.48;6.70;;;;;;;-0.69;100.00;95588.56;5070143;28;20044;-61
2024/01/27 04:03:02;;;;;;;14.60;7.10;;;;;;;-0.73;100.00;95582.19;5069823;28;20490;-61
2024/01/27 04:05:30;;;;;;;15.33;6.10;;;;;;;-0.74;100.00;95594.06;5068700;28;20449;-61
2024/01/27 04:07:57;;;;;;;16.15;6.55;;;;;;;-0.72;100.00;95588.38;5069626;28;20058;-62
2024/01/27 04:10:23;;;;;;;15.13;6.40;;;;;;;-0.62;100.00;95594.34;5069895;28;20053;-62
2024/01/27 04:12:50;;;;;;;15.27;6.55;;;;;;;-0.51;100.00;95599.53;5069961;28;20049;-61
2024/01/27 04:15:17;;;;;;;13.63;6.65;;;;;;;-0.43;100.00;95591.50;5088795;28;20773;-61
2024/01/27 04:17:44;;;;;;;13.37;5.60;;;;;;;-0.31;100.00;95592.88;5085494;28;20394;-62
2024/01/27 04:20:11;;;;;;;14.95;6.95;;;;;;;-0.17;100.00;95603.63;5069103;28;20098;-63
2024/01/27 04:22:38;;;;;;;19.85;9.02;;;;;;;-0.11;100.00;95597.78;5068478;28;20044;-61
2024/01/27 04:25:05;;;;;;;14.10;6.80;;;;;;;-0.12;100.00;95603.47;5069424;28;20043;-61
2024/01/27 04:27:37;;;;;;;14.00;6.75;;;;;;;-0.40;100.00;95603.59;5069798;28;20052;-61
2024/01/27 04:30:06;;;;;;;16.63;6.93;;;;;;;-0.55;100.00;95607.41;5069448;28;20057;-62
2024/01/27 04:32:33;;;;;;;17.05;7.43;;;;;;;-0.70;100.00;95603.16;5069860;28;20048;-61
2024/01/27 04:34:59;;;;;;;17.30;8.10;;;;;;;-0.34;100.00;95610.47;5068984;28;20054;-62
2024/01/27 04:37:26;;;;;;;27.70;11.15;;;;;;;-0.33;100.00;95606.66;5069295;28;20406;-61
2024/01/27 04:39:53;;;;;;;42.95;17.48;;;;;;;-0.19;100.00;95608.53;5069125;28;20041;-61
2024/01/27 04:42:20;;;;;;;25.13;11.17;;;;;;;-0.23;100.00;95605.63;5069261;28;20410;-63
2024/01/27 04:44:46;;;;;;;26.73;10.30;;;;;;;-0.38;100.00;95611.38;5069579;28;20048;-61
2024/01/27 04:47:13;;;;;;;34.72;14.65;;;;;;;-0.31;100.00;95609.84;5068920;28;20040;-64
2024/01/27 04:49:40;;;;;;;24.50;10.35;;;;;;;-0.39;100.00;95613.28;5069569;28;20403;-62
2024/01/27 04:52:07;;;;;;;24.90;10.30;;;;;;;-0.30;100.00;95603.38;5068856;28;20383;-61
2024/01/27 04:54:34;;;;;;;24.63;7.70;;;;;;;-0.44;100.00;95611.50;5069502;28;20433;-61
2024/01/27 04:57:00;;;;;;;31.83;6.90;;;;;;;-0.72;100.00;95608.06;5068900;28;20040;-62
2024/01/27 04:59:27;;;;;;;20.75;7.28;;;;;;;-0.54;100.00;95609.03;5069214;28;20521;-62
2024/01/27 05:01:54;;;;;;;18.95;6.57;;;;;;;-0.45;100.00;95606.41;5068801;28;20146;-63
2024/01/27 05:04:21;;;;;;;21.38;7.20;;;;;;;-0.34;100.00;95612.34;5068008;28;20040;-61
2024/01/27 05:06:49;;;;;;;22.53;7.70;;;;;;;-0.22;100.00;95621.53;5068212;28;20044;-62
2024/01/27 05:09:16;;;;;;;24.65;8.68;;;;;;;-0.07;100.00;95620.38;5059862;28;20815;-62
2024/01/27 05:11:45;;;;;;;22.48;8.48;;;;;;;0.05;100.00;95616.34;5068963;28;20626;-62
2024/01/27 05:14:12;;;;;;;22.85;7.57;;;;;;;0.02;100.00;95606.13;5068125;28;20040;-62
2024/01/27 05:16:38;;;;;;;21.20;8.13;;;;;;;0.10;100.00;95616.19;5069257;28;20052;-61
2024/01/27 05:19:05;;;;;;;25.47;7.30;;;;;;;0.13;100.00;95605.59;5068603;28;20041;-63
2024/01/27 05:21:32;;;;;;;24.70;7.10;;;;;;;0.15;100.00;95602.59;5069079;28;20053;-62
2024/01/27 05:23:59;;;;;;;41.15;8.23;;;;;;;0.27;100.00;95600.13;5068770;28;20052;-61
2024/01/27 05:26:26;;;;;;;28.33;7.85;;;;;;;0.25;100.00;95594.22;5068769;28;20047;-61
2024/01/27 05:28:52;;;;;;;22.63;7.50;;;;;;;0.25;100.00;95598.84;5068262;28;20044;-61
2024/01/27 05:31:19;;;;;;;29.73;8.90;;;;;;;0.24;100.00;95597.25;5068734;28;20048;-62
2024/01/27 05:33:46;;;;;;;23.60;7.55;;;;;;;0.28;100.00;95592.81;5069196;28;20048;-61
2024/01/27 05:36:13;;;;;;;25.38;9.38;;;;;;;0.38;100.00;95595.25;5068565;28;20115;-61
2024/01/27 05:38:40;;;;;;;30.33;10.27;;;;;;;0.39;100.00;95594.94;5069100;28;20049;-61
2024/01/27 05:41:06;;;;;;;36.28;13.38;;;;;;;0.48;100.00;95600.38;5068641;28;20036;-62
2024/01/27 05:43:33;;;;;;;47.87;14.47;;;;;;;0.54;100.00;95604.59;5068567;28;20109;-61
2024/01/27 05:46:00;;;;;;;36.92;12.32;;;;;;;0.57;100.00;95598.53;5068405;28;20053;-62
2024/01/27 05:48:27;;;;;;;29.42;10.63;;;;;;;0.57;100.00;95598.53;5072159;28;20099;-61
2024/01/27 05:51:00;;;;;;;33.90;10.32;;;;;;;0.65;100.00;95594.28;5072221;28;20052;-61
2024/01/27 05:53:27;;;;;;;33.88;11.38;;;;;;;0.69;100.00;95597.97;5072423;28;20093;-62
2024/01/27 05:55:56;;;;;;;31.17;9.90;;;;;;;0.74;100.00;95597.03;5072395;28;20044;-62
2024/01/27 05:58:23;;;;;;;76.85;9.93;;;;;;;0.72;100.00;95599.25;5072330;28;20379;-64
2024/01/27 06:00:50;;;;;;;49.88;8.63;;;;;;;0.59;100.00;95598.25;5071865;28;20125;-63
2024/01/27 06:03:17;;;;;;;54.20;7.43;;;;;;;0.43;100.00;95595.13;5063258;28;20406;-63
2024/01/27 06:05:44;;;;;;;54.28;7.40;;;;;;;0.49;100.00;95601.22;5071390;28;20048;-61
2024/01/27 06:08:11;;;;;;;55.40;7.20;;;;;;;0.18;100.00;95600.06;5071784;28;20048;-61
2024/01/27 06:10:38;;;;;;;50.20;7.00;;;;;;;0.15;100.00;95602.59;5070712;28;20052;-62
2024/01/27 06:13:05;;;;;;;67.90;8.00;;;;;;;0.09;100.00;95606.53;5070399;28;20070;-62
2024/01/27 06:15:32;;;;;;;38.05;8.10;;;;;;;0.01;100.00;95610.75;5071987;28;20044;-62
2024/01/27 06:17:59;;;;;;;47.38;7.22;;;;;;;0.11;100.00;95615.91;5071577;28;20044;-62
2024/01/27 06:20:26;;;;;;;55.03;7.67;;;;;;;0.30;100.00;95617.59;5092104;28;20050;-61
2024/01/27 06:22:53;;;;;;;31.40;7.05;;;;;;;0.28;100.00;95619.81;5090619;28;20047;-62
2024/01/27 06:25:21;;;;;;;61.85;6.60;;;;;;;0.24;100.00;95624.25;5091871;28;20052;-62
2024/01/27 06:27:48;;;;;;;131.25;8.65;;;;;;;0.24;100.00;95624.25;5090783;28;20463;-62
2024/01/27 06:30:15;;;;;;;32.90;6.55;;;;;;;0.07;100.00;95622.22;5091358;28;20397;-62
2024/01/27 06:32:43;;;;;;;57.40;6.43;;;;;;;0.15;100.00;95629.59;5092122;28;20044;-62
2024/01/27 06:35:10;;;;;;;71.90;6.63;;;;;;;-0.07;100.00;95636.56;5091347;28;20056;-61
2024/01/27 06:37:37;;;;;;;29.80;5.55;;;;;;;0.08;100.00;95637.31;5091932;28;20486;-61
2024/01/27 06:40:04;;;;;;;56.72;5.50;;;;;;;0.09;100.00;95641.59;5091458;28;20066;-62
2024/01/27 06:42:32;;;;;;;37.78;5.80;;;;;;;0.17;100.00;95632.78;5091479;28;20047;-62
2024/01/27 06:44:59;;;;;;;56.17;5.57;;;;;;;0.06;100.00;95639.50;5091389;28;20040;-63
2024/01/27 06:47:26;;;;;;;38.88;6.57;;;;;;;-0.08;100.00;95643.06;5091700;28;20413;-62
2024/01/27 06:49:52;;;;;;;71.22;6.80;;;;;;;-0.49;100.00;95648.56;5091404;28;20040;-63
2024/01/27 06:52:19;;;;;;;87.53;6.88;;;;;;;-0.47;100.00;95649.06;5090196;28;20036;-62
2024/01/27 06:54:46;;;;;;;111.95;7.13;;;;;;;-0.43;100.00;95658.94;5091594;28;20508;-62
2024/01/27 06:57:20;;;;;;;67.03;7.03;;;;;;;-0.47;100.00;95660.63;5090765;28;20383;-62
2024/01/27 06:59:52;;;;;;;59.92;6.55;;;;;;;-0.21;100.00;95658.19;5091763;28;20103;-62
2024/01/27 07:02:28;;;;;;;47.38;6.28;;;;;;;-0.38;100.00;95657.22;5090597;28;21729;-62
2024/01/27 07:04:56;;;;;;;63.33;6.32;;;;;;;-0.32;100.00;95647.91;5091212;28;20405;-62
2024/01/27 07:07:27;;;;;;;113.72;8.43;;;;;;;-0.27;100.00;95648.59;5091214;28;20046;-62
2024/01/27 07:09:57;;;;;;;45.70;6.43;;;;;;;-0.18;100.00;95646.00;5090778;28;20045;-62
2024/01/27 07:12:24;;;;;;;31.75;5.68;;;;;;;-0.08;100.00;95645.78;5090112;28;20048;-61
2024/01/27 07:14:52;;;;;;;47.13;7.28;;;;;;;-0.09;100.00;95643.38;5090483;28;20048;-62
2024/01/27 07:17:23;;;;;;;56.00;7.07;;;;;;;-0.16;100.00;95642.97;5089527;28;20104;-62
2024/01/27 07:19:49;;;;;;;37.50;6.47;;;;;;;-0.05;100.00;95641.66;5071065;28;20044;-62
2024/01/27 07:22:16;;;;;;;193.83;11.17;;;;;;;-0.26;100.00;95646.72;5070648;28;20704;-62
2024/01/27 07:24:43;;;;;;;44.55;7.03;;;;;;;-0.12;100.00;95650.19;5071021;28;20390;-62
2024/01/27 07:27:12;;;;;;;55.65;9.20;;;;;;;0.03;100.00;95649.03;5070403;28;20444;-64
2024/01/27 07:29:40;;;;;;;31.35;6.90;;;;;;;0.08;100.00;95653.50;5070506;28;20041;-62
2024/01/27 07:32:08;;;;;;;37.47;7.93;;;;;;;0.05;100.00;95648.72;5070238;28;20051;-62
2024/01/27 07:34:35;;;;;;;57.87;7.20;;;;;;;0.03;100.00;95651.72;5070489;28;20086;-62
2024/01/27 07:37:02;;;;;;;147.48;9.80;;;;;;;-0.68;100.00;95657.56;5070012;28;20056;-63
2024/01/27 07:39:29;;;;;;;84.55;12.82;;;;;;;-0.67;100.00;95652.97;5070508;28;20048;-61
2024/01/27 07:41:55;;;;;;;69.15;8.10;;;;;;;-0.66;100.00;95654.56;5070501;28;20048;-62
2024/01/27 07:44:22;;;;;;;50.10;7.22;;;;;;;-0.52;100.00;95649.19;5070282;28;20118;-62
2024/01/27 07:46:49;;;;;;;66.27;7.90;;;;;;;-0.46;100.00;95650.66;5069003;28;20431;-62
2024/01/27 07:49:16;;;;;;;35.35;8.43;;;;;;;-0.12;100.00;95655.56;5069487;28;20109;-62
2024/01/27 07:51:43;;;;;;;75.15;8.65;;;;;;;-0.09;100.00;95656.88;5070250;28;20225;-63
2024/01/27 07:54:10;;;;;;;47.10;7.75;;;;;;;0.08;100.00;95654.31;5068529;28;20041;-61
2024/01/27 07:56:37;;;;;;;37.83;8.00;;;;;;;0.04;100.00;95652.50;5068757;28;20048;-61
2024/01/27 07:59:04;;;;;;;53.87;8.07;;;;;;;0.04;100.00;95647.13;5069510;28;20421;-62
2024/01/27 08:01:31;;;;;;;52.80;9.48;;;;;;;-0.12;100.00;95647.47;5069486;28;20076;-62
2024/01/27 08:03:58;;;;;;;225.60;13.75;;;;;;;-0.44;100.00;95643.84;5069675;28;20067;-62
2024/01/27 08:06:31;;;;;;;118.18;11.27;;;;;;;-0.48;100.00;95648.25;5069795;28;20072;-61
2024/01/27 08:08:59;;;;;;;60.90;9.18;;;;;;;-0.33;100.00;95638.25;5067934;28;20062;-62
2024/01/27 08:11:26;;;;;;;29.27;7.57;;;;;;;-0.18;100.00;95637.09;5069304;28;20045;-62
2024/01/27 08:13:53;;;;;;;52.00;8.93;;;;;;;0.15;100.00;95638.47;5067935;28;20355;-64
2024/01/27 08:16:21;;;;;;;31.15;8.27;;;;;;;0.37;100.00;95639.59;5069650;28;20633;-64
2024/01/27 08:18:48;;;;;;;165.77;10.50;;;;;;;0.26;100.00;95636.31;5069570;28;20047;-64
2024/01/27 08:21:15;;;;;;;174.48;21.15;;;;;;;0.13;100.00;95627.19;5069066;28;20385;-61
2024/01/27 08:23:41;;;;;;;72.73;9.40;;;;;;;-0.52;100.00;95631.09;5069603;28;20059;-61
2024/01/27 08:26:08;;;;;;;71.05;9.27;;;;;;;-0.33;100.00;95627.44;5068857;28;20040;-62
2024/01/27 08:28:35;;;;;;;48.35;8.65;;;;;;;0.15;100.00;95618.78;5069280;28;20047;-62
2024/01/27 08:31:02;;;;;;;34.92;7.78;;;;;;;0.35;100.00;95628.28;5069149;28;20491;-63
2024/01/27 08:33:29;;;;;;;45.88;8.95;;;;;;;0.46;100.00;95626.13;5094867;28;20044;-62
2024/01/27 08:35:56;;;;;;;36.27;7.77;;;;;;;0.84;100.00;95644.59;5086523;28;20047;-62
2024/01/27 08:38:23;;;;;;;34.13;7.53;;;;;;;1.00;100.00;95656.59;5089419;28;20048;-62
2024/01/27 08:40:49;;;;;;;42.22;8.80;;;;;;;0.67;100.00;95650.72;5089650;28;20052;-63
2024/01/27 08:43:16;;;;;;;57.47;10.10;;;;;;;0.47;100.00;95650.13;5088461;28;20735;-63
2024/01/27 08:45:43;;;;;;;86.32;10.45;;;;;;;-0.06;100.00;95654.34;5089331;28;20047;-62
2024/01/27 08:48:11;;;;;;;81.03;14.10;;;;;;;-0.17;100.00;95657.59;5089086;28;20075;-63
2024/01/27 08:50:39;;;;;;;82.45;8.95;;;;;;;-0.12;100.00;95660.97;5089450;28;20047;-63
2024/01/27 08:53:05;;;;;;;67.45;7.72;;;;;;;0.41;100.00;95654.06;5089193;28;20417;-62
2024/01/27 08:55:32;;;;;;;40.63;7.50;;;;;;;1.01;100.00;95642.00;5089370;28;20341;-62
2024/01/27 08:57:59;;;;;;;75.32;8.38;;;;;;;1.68;100.00;95637.41;5088983;28;20070;-63
2024/01/27 09:00:26;;;;;;;37.53;8.10;;;;;;;2.26;100.00;95647.00;5089170;28;20071;-63
2024/01/27 09:02:53;;;;;;;40.72;9.18;;;;;;;2.23;100.00;95646.81;5088777;28;20089;-63
2024/01/27 09:05:20;;;;;;;36.45;8.30;;;;;;;2.21;100.00;95641.72;5089300;28;20048;-63
2024/01/27 09:07:47;;;;;;;70.68;9.40;;;;;;;2.06;100.00;95639.50;5088897;28;20044;-62
2024/01/27 09:10:15;;;;;;;34.53;7.78;;;;;;;2.24;100.00;95641.09;5088665;28;20044;-62
2024/01/27 09:12:42;;;;;;;24.60;7.13;;;;;;;2.48;100.00;95631.69;5089095;28;20048;-63
2024/01/27 09:15:10;;;;;;;39.60;7.38;;;;;;;1.75;100.00;95637.72;5088438;28;20055;-62
2024/01/27 09:17:37;;;;;;;29.25;7.60;;;;;;;1.84;100.00;95638.53;5085605;28;20045;-62
2024/01/27 09:20:04;;;;;;;22.02;6.75;;;;;;;2.17;100.00;95640.78;5068604;28;20503;-63
2024/01/27 09:22:31;;;;;;;28.35;7.55;;;;;;;2.45;100.00;95635.81;5073107;28;20036;-63
2024/01/27 09:24:58;;;;;;;41.53;7.03;;;;;;;2.91;100.00;95631.56;5072669;28;20041;-62
2024/01/27 09:27:24;;;;;;;66.50;7.65;;;;;;;2.48;100.00;95637.09;5073134;28;20051;-63
2024/01/27 09:29:51;;;;;;;55.83;8.18;;;;;;;2.37;100.00;95636.63;5072703;28;20411;-62
2024/01/27 09:32:18;;;;;;;80.80;9.65;;;;;;;2.29;100.00;95654.47;5069278;28;20048;-63
2024/01/27 09:34:45;;;;;;;47.33;9.10;;;;;;;2.97;100.00;95653.88;5071899;28;20055;-65
2024/01/27 09:37:12;;;;;;;35.73;8.90;;;;;;;3.06;100.00;95651.94;5093007;28;20492;-62
2024/01/27 09:39:39;;;;;;;57.67;10.75;;;;;;;2.84;100.00;95639.41;5091836;28;20388;-62
2024/01/27 09:42:08;;;;;;;55.33;12.35;;;;;;;2.80;100.00;95638.47;5093074;28;20516;-63
2024/01/27 09:44:35;;;;;;;41.63;8.55;;;;;;;2.78;100.00;95633.34;5092758;28;20043;-62
2024/01/27 09:47:02;;;;;;;22.08;9.05;;;;;;;4.34;100.00;95624.63;5092279;28;20424;-62
2024/01/27 09:49:31;;;;;;;20.37;7.50;;;;;;;5.50;100.00;95628.16;5091317;28;20048;-63
2024/01/27 09:51:59;;;;;;;19.15;7.00;;;;;;;4.94;100.00;95622.44;5092538;28;20104;-63
2024/01/27 09:54:26;;;;;;;35.78;7.28;;;;;;;4.77;100.00;95631.59;5092705;28;20056;-65
2024/01/27 09:56:55;;;;;;;15.68;7.72;;;;;;;6.53;100.00;95642.50;5092437;28;20051;-63
2024/01/27 09:59:23;;;;;;;16.60;7.75;;;;;;;8.62;100.00;95638.16;5091504;28;20489;-63
2024/01/27 10:01:51;;;;;;;19.13;7.03;;;;;;;8.57;100.00;95632.97;5092566;28;20051;-63
2024/01/27 10:04:20;;;;;;;14.32;7.05;;;;;;;8.17;99.05;95628.63;5079827;28;20190;-63
2024/01/27 10:06:50;;;;;;;15.25;7.00;;;;;;;8.65;100.00;95631.94;5088298;28;20058;-64
2024/01/27 10:09:18;;;;;;;14.75;8.63;;;;;;;7.91;100.00;95624.53;5083502;28;20401;-64
2024/01/27 10:11:48;;;;;;;19.67;11.60;;;;;;;8.50;95.58;95630.88;5092303;28;20055;-63
2024/01/27 10:14:15;;;;;;;20.23;8.40;;;;;;;9.63;92.33;95620.78;5091959;28;20444;-63
2024/01/27 10:16:45;;;;;;;15.35;8.20;;;;;;;10.70;83.82;95621.47;5092277;28;20445;-63
2024/01/27 10:19:19;;;;;;;16.30;9.20;;;;;;;10.33;80.62;95613.97;5086299;28;20044;-63
2024/01/27 10:21:47;;;;;;;13.27;7.65;;;;;;;10.16;85.74;95609.78;5092358;28;20040;-65
2024/01/27 10:24:14;;;;;;;11.68;7.50;;;;;;;13.25;67.76;95601.19;5092186;28;20039;-63
2024/01/27 10:26:41;;;;;;;15.23;8.40;;;;;;;12.25;64.76;95599.66;5092273;28;20063;-64
2024/01/27 10:29:09;;;;;;;14.30;8.50;;;;;;;13.39;65.71;95606.75;5091743;28;20044;-63
2024/01/27 10:31:36;;;;;;;13.30;8.70;;;;;;;12.71;62.66;95596.31;5091543;28;20040;-63
2024/01/27 10:34:09;;;;;;;13.95;9.00;;;;;;;13.73;61.28;95589.81;5090789;28;20048;-63
2024/01/27 10:36:44;;;;;;;15.40;9.48;;;;;;;14.42;56.71;95593.25;5092099;28;20046;-64
2024/01/27 10:39:22;;;;;;;14.00;8.80;;;;;;;18.06;50.34;95583.69;5091860;28;20485;-63
2024/01/27 10:41:50;;;;;;;14.25;8.98;;;;;;;19.45;44.08;95590.47;5091849;28;20055;-63
2024/01/27 10:44:18;;;;;;;16.45;9.30;;;;;;;19.71;42.59;95574.75;5090724;28;21361;-63
2024/01/27 10:46:49;;;;;;;17.17;10.25;;;;;;;16.39;45.74;95580.84;5091747;28;20051;-63
2024/01/27 10:49:17;;;;;;;25.00;13.38;;;;;;;14.30;51.69;95580.66;5091082;28;20778;-63
2024/01/27 10:51:58;;;;;;;15.70;10.47;;;;;;;16.02;51.96;95568.56;5091486;28;20040;-63
2024/01/27 10:54:26;;;;;;;17.58;11.23;;;;;;;17.62;46.82;95568.91;5106133;28;20032;-65
2024/01/27 10:56:58;;;;;;;17.35;11.00;;;;;;;18.23;46.04;95560.38;5091135;28;20193;-64
2024/01/27 10:59:31;;;;;;;15.20;9.85;;;;;;;16.44;45.48;95561.00;5091540;28;20054;-64
2024/01/27 11:01:58;;;;;;;12.45;8.50;;;;;;;14.43;52.76;95562.47;5090675;28;20415;-63
2024/01/27 11:04:28;;;;;;;10.83;7.13;;;;;;;13.96;53.64;95559.84;5091508;28;20054;-63
2024/01/27 11:06:56;;;;;;;10.60;7.22;;;;;;;15.89;51.02;95548.13;5090838;28;20044;-65
2024/01/27 11:09:24;;;;;;;8.93;6.28;;;;;;;18.29;44.90;95543.94;5091376;28;20546;-63
2024/01/27 11:11:52;;;;;;;9.57;6.50;;;;;;;18.79;43.30;95542.19;5090749;28;20046;-64
2024/01/27 11:14:19;;;;;;;10.20;7.10;;;;;;;17.86;44.69;95542.75;5091137;28;20059;-63
2024/01/27 11:16:47;;;;;;;9.33;6.47;;;;;;;18.56;42.08;95538.28;5091094;28;20047;-64
2024/01/27 11:19:17;;;;;;;8.55;6.40;;;;;;;18.35;43.31;95537.50;5073610;28;20036;-63
2024/01/27 11:21:43;;;;;;;9.48;6.03;;;;;;;18.39;41.64;95553.31;5070868;28;20050;-63
2024/01/27 11:24:15;;;;;;;9.70;6.10;;;;;;;15.44;46.63;95559.16;5070256;28;20045;-63